Time;durP1;ratioP1;P1;durP2;ratioP2;P2;SDS_P1;SDS_P2;PMS_P1;PMS_P2;Temp;Humidity;BMP_temperature;BMP_pressure;BME280_temperature;BME280_humidity;BME280_pressure;Samples;Min_cycle;Max_cycle;Signal;HPM_P1;HPM_P2
2021/12/29 00:00:21;;;;;;;103.78;48.78;;;4.40;99.90;;;;;;5135025;27;20031;-69
2021/12/29 00:02:48;;;;;;;91.70;43.05;;;4.40;99.90;;;;;;5134889;27;20110;-69
2021/12/29 00:05:14;;;;;;;86.10;41.55;;;4.50;99.90;;;;;;5134709;27;20085;-73
2021/12/29 00:07:40;;;;;;;89.80;44.63;;;4.60;99.90;;;;;;5134320;27;20066;-72
2021/12/29 00:10:08;;;;;;;107.22;46.28;;;4.60;99.90;;;;;;5134778;27;20094;-71
2021/12/29 00:12:40;;;;;;;88.72;42.42;;;4.60;99.90;;;;;;5134540;27;20385;-72
2021/12/29 00:15:10;;;;;;;112.40;50.50;;;4.60;99.90;;;;;;5134731;27;20448;-72
2021/12/29 00:17:39;;;;;;;107.25;44.45;;;4.70;99.90;;;;;;5134409;27;20473;-72
2021/12/29 00:20:06;;;;;;;120.95;54.70;;;4.60;99.90;;;;;;5134362;27;20023;-70
2021/12/29 00:22:32;;;;;;;127.63;51.38;;;4.60;99.90;;;;;;5134194;27;20027;-70
2021/12/29 00:24:58;;;;;;;176.93;60.15;;;4.60;99.90;;;;;;5134452;27;20033;-74
2021/12/29 00:27:24;;;;;;;115.18;44.95;;;4.40;99.90;;;;;;5133974;27;20051;-72
2021/12/29 00:29:49;;;;;;;148.15;51.58;;;4.50;99.90;;;;;;5132833;27;20415;-75
2021/12/29 00:32:44;;;;;;;161.27;57.05;;;4.50;99.90;;;;;;5133969;27;20078;-74
2021/12/29 00:35:29;;;;;;;103.75;49.78;;;4.50;99.90;;;;;;5133640;27;20042;-70
2021/12/29 00:38:34;;;;;;;154.98;58.78;;;4.50;99.90;;;;;;5110842;28;20639;-72
2021/12/29 00:41:19;;;;;;;177.23;55.75;;;4.40;99.90;;;;;;5110770;28;20039;-72
2021/12/29 00:44:00;;;;;;;129.13;51.13;;;4.40;99.90;;;;;;5111138;28;20023;-72
2021/12/29 00:47:02;;;;;;;97.22;44.47;;;4.40;99.90;;;;;;5030793;28;20177;-70
2021/12/29 00:49:32;;;;;;;93.88;45.10;;;4.50;99.90;;;;;;5030369;28;20163;-71
2021/12/29 00:52:00;;;;;;;132.65;52.72;;;4.50;99.90;;;;;;5030493;28;20021;-71
2021/12/29 00:54:27;;;;;;;91.95;46.95;;;4.50;99.90;;;;;;5030454;28;20599;-73
2021/12/29 00:56:53;;;;;;;92.43;43.42;;;4.50;99.90;;;;;;5030565;28;20037;-70
2021/12/29 00:59:19;;;;;;;145.93;52.17;;;4.60;99.90;;;;;;5029848;28;20052;-73
2021/12/29 01:01:46;;;;;;;86.82;41.17;;;4.60;99.90;;;;;;5029883;28;20503;-72
2021/12/29 01:04:12;;;;;;;141.85;58.15;;;4.60;99.90;;;;;;5029418;28;20034;-71
2021/12/29 01:06:38;;;;;;;124.75;51.17;;;4.50;99.90;;;;;;5030077;28;20032;-70
2021/12/29 01:09:04;;;;;;;151.27;53.13;;;4.60;99.90;;;;;;5037318;28;20160;-69
2021/12/29 01:11:30;;;;;;;176.07;60.22;;;4.50;99.90;;;;;;5047472;28;20059;-68
2021/12/29 01:13:56;;;;;;;163.75;56.30;;;4.50;99.90;;;;;;5050239;28;20080;-72
2021/12/29 01:19:12;;;;;;;126.68;56.15;;;4.40;99.90;;;;;;5050090;28;20036;-74
2021/12/29 01:21:40;;;;;;;135.63;67.78;;;4.40;99.90;;;;;;5113500;27;20043;-70
2021/12/29 01:24:09;;;;;;;105.82;49.97;;;4.40;99.90;;;;;;5133539;27;20130;-72
2021/12/29 01:26:35;;;;;;;90.85;48.17;;;4.40;99.90;;;;;;5113145;27;20030;-69
2021/12/29 01:29:02;;;;;;;87.90;43.20;;;4.40;99.90;;;;;;5112519;28;20053;-71
2021/12/29 01:31:28;;;;;;;91.35;46.05;;;4.40;99.90;;;;;;5112908;28;20027;-69
2021/12/29 01:33:55;;;;;;;101.60;48.85;;;4.40;99.90;;;;;;5112923;28;20029;-69
2021/12/29 01:36:20;;;;;;;75.68;42.78;;;4.40;99.90;;;;;;5112390;28;20044;-69
2021/12/29 01:38:46;;;;;;;95.13;48.40;;;4.40;99.90;;;;;;5112210;28;20098;-73
2021/12/29 01:41:12;;;;;;;105.85;54.30;;;4.50;99.90;;;;;;5112877;28;20027;-72
2021/12/29 01:43:38;;;;;;;97.57;50.47;;;4.50;99.90;;;;;;5119951;28;20094;-69
2021/12/29 01:46:04;;;;;;;97.13;48.03;;;4.50;99.90;;;;;;5133321;27;20015;-69
2021/12/29 01:48:30;;;;;;;96.90;47.05;;;4.40;99.90;;;;;;5133121;27;20042;-73
2021/12/29 01:50:57;;;;;;;92.15;44.53;;;4.40;99.90;;;;;;5133041;27;20024;-70
2021/12/29 01:53:26;;;;;;;85.30;44.00;;;4.40;99.90;;;;;;5133222;27;20389;-70
2021/12/29 01:55:52;;;;;;;99.82;47.35;;;4.40;99.90;;;;;;5133255;27;20019;-73
2021/12/29 01:58:19;;;;;;;85.70;44.45;;;4.40;99.90;;;;;;5132831;27;20043;-70
2021/12/29 02:00:46;;;;;;;79.20;44.20;;;4.50;99.90;;;;;;5131853;28;20034;-73
2021/12/29 02:03:12;;;;;;;74.57;39.60;;;4.50;99.90;;;;;;5133021;27;20503;-72
2021/12/29 02:05:39;;;;;;;74.82;41.47;;;4.60;99.90;;;;;;5131886;28;20110;-73
2021/12/29 02:08:06;;;;;;;73.60;39.35;;;4.60;99.90;;;;;;5133018;27;20052;-73
2021/12/29 02:10:41;;;;;;;88.78;42.53;;;4.60;99.90;;;;;;5134075;27;20019;-69
2021/12/29 02:13:08;;;;;;;76.70;42.45;;;4.70;99.90;;;;;;5136970;27;20015;-70
2021/12/29 02:15:35;;;;;;;68.43;38.90;;;4.80;99.90;;;;;;5136810;27;20023;-75
2021/12/29 02:18:01;;;;;;;79.15;40.33;;;4.70;99.90;;;;;;5136966;27;20026;-74
2021/12/29 02:20:27;;;;;;;79.95;48.75;;;4.70;99.90;;;;;;5136698;27;20023;-72
2021/12/29 02:23:14;;;;;;;84.88;47.33;;;4.80;99.90;;;;;;5136678;27;20027;-70
2021/12/29 02:25:51;;;;;;;74.00;39.17;;;4.70;99.90;;;;;;5136782;27;20102;-73
2021/12/29 02:28:22;;;;;;;80.65;40.97;;;4.70;99.90;;;;;;5136442;27;20035;-73
2021/12/29 02:30:48;;;;;;;77.40;42.63;;;4.80;99.90;;;;;;5136275;27;20422;-74
2021/12/29 02:33:15;;;;;;;71.55;40.15;;;4.80;99.90;;;;;;5136625;27;20023;-70
2021/12/29 02:35:42;;;;;;;79.55;40.88;;;4.80;99.90;;;;;;5136738;27;20122;-73
2021/12/29 02:38:27;;;;;;;76.53;41.17;;;4.70;99.90;;;;;;5136469;27;20058;-73
2021/12/29 02:40:57;;;;;;;76.63;41.40;;;4.60;99.90;;;;;;5136394;27;20107;-73
2021/12/29 02:43:24;;;;;;;80.80;43.38;;;4.70;99.90;;;;;;5136550;27;20102;-70
2021/12/29 02:45:58;;;;;;;78.90;40.47;;;4.60;99.90;;;;;;5136352;27;20453;-74
2021/12/29 02:48:26;;;;;;;74.22;39.53;;;4.60;99.90;;;;;;5136524;27;20031;-74
2021/12/29 02:50:55;;;;;;;69.80;38.95;;;4.60;99.90;;;;;;5136107;27;20031;-70
2021/12/29 02:53:25;;;;;;;63.55;36.30;;;4.70;99.90;;;;;;5136292;27;20409;-73
2021/12/29 02:55:52;;;;;;;66.22;38.63;;;4.70;99.90;;;;;;5136366;27;20019;-74
2021/12/29 02:58:19;;;;;;;77.47;41.22;;;4.80;99.90;;;;;;5136312;27;20625;-74
2021/12/29 03:00:45;;;;;;;76.85;41.47;;;4.80;99.90;;;;;;5135962;27;20487;-73
2021/12/29 03:03:23;;;;;;;76.13;37.67;;;4.80;99.90;;;;;;5135952;27;20031;-72
2021/12/29 03:05:49;;;;;;;71.00;40.55;;;4.80;99.90;;;;;;5135836;27;20028;-73
2021/12/29 03:08:16;;;;;;;83.25;43.60;;;4.90;99.90;;;;;;5135247;27;20126;-73
2021/12/29 03:10:43;;;;;;;73.18;40.38;;;5.00;99.90;;;;;;5135929;27;20023;-73
2021/12/29 03:13:09;;;;;;;77.25;41.90;;;5.00;99.90;;;;;;5135836;27;20777;-72
2021/12/29 03:15:36;;;;;;;68.47;37.78;;;4.90;99.90;;;;;;5135628;27;20027;-70
2021/12/29 03:18:02;;;;;;;70.63;39.90;;;4.90;99.90;;;;;;5135476;27;20027;-74
2021/12/29 03:20:28;;;;;;;80.20;41.45;;;4.90;99.90;;;;;;5135381;27;20031;-71
2021/12/29 03:22:54;;;;;;;68.45;40.22;;;5.00;99.90;;;;;;5135019;27;20041;-74
2021/12/29 03:25:22;;;;;;;65.50;40.22;;;4.90;99.90;;;;;;5135392;27;20034;-74
2021/12/29 03:27:49;;;;;;;80.30;39.95;;;4.90;99.90;;;;;;5135175;27;20473;-74
2021/12/29 03:30:18;;;;;;;67.72;39.88;;;4.90;99.90;;;;;;5134732;27;20485;-73
2021/12/29 03:32:51;;;;;;;78.88;40.85;;;4.90;99.90;;;;;;5135309;27;20045;-72
2021/12/29 03:35:17;;;;;;;;;;;4.90;99.90;;;;;;5135494;27;20030;-74
2021/12/29 03:37:42;;;;;;;77.07;39.80;;;4.80;99.90;;;;;;5134810;27;19920;-74
2021/12/29 03:40:09;;;;;;;64.70;37.40;;;4.80;99.90;;;;;;5135112;27;20393;-74
2021/12/29 03:42:35;;;;;;;78.55;41.45;;;4.80;99.90;;;;;;5135034;27;20015;-73
2021/12/29 03:45:02;;;;;;;70.82;37.22;;;4.80;99.90;;;;;;5134991;27;20700;-73
2021/12/29 03:47:28;;;;;;;80.90;39.40;;;4.80;99.90;;;;;;5135065;27;20068;-70
2021/12/29 03:49:53;;;;;;;72.82;38.25;;;4.80;99.90;;;;;;5135024;27;20035;-73
2021/12/29 03:52:20;;;;;;;79.15;39.88;;;4.80;99.90;;;;;;5134844;27;20023;-74
2021/12/29 03:54:46;;;;;;;73.38;38.92;;;4.70;99.90;;;;;;5134708;27;20490;-74
2021/12/29 03:57:12;;;;;;;85.22;44.65;;;4.70;99.90;;;;;;5134702;27;20088;-73
2021/12/29 03:59:37;;;;;;;78.75;40.35;;;4.70;99.90;;;;;;5135043;27;20038;-73
2021/12/29 04:02:04;;;;;;;79.13;40.17;;;4.70;99.90;;;;;;5134328;27;20034;-72
2021/12/29 04:04:30;;;;;;;80.70;39.25;;;4.80;99.90;;;;;;5134853;27;20031;-69
2021/12/29 04:06:56;;;;;;;75.93;39.78;;;4.80;99.90;;;;;;5134210;27;20023;-69
2021/12/29 04:09:22;;;;;;;67.30;37.92;;;4.80;99.90;;;;;;5134538;27;20053;-69
2021/12/29 04:11:50;;;;;;;78.80;38.33;;;4.80;99.90;;;;;;5134640;27;20358;-73
2021/12/29 04:14:19;;;;;;;78.18;38.70;;;4.80;99.90;;;;;;5134234;27;20034;-73
2021/12/29 04:16:46;;;;;;;71.82;37.75;;;4.80;99.90;;;;;;5134643;27;20029;-72
2021/12/29 04:19:17;;;;;;;68.28;37.10;;;4.90;99.90;;;;;;5134694;27;20106;-73
2021/12/29 04:21:46;;;;;;;68.43;39.47;;;4.90;99.90;;;;;;5133794;27;20031;-73
2021/12/29 04:24:13;;;;;;;76.97;38.00;;;4.90;99.90;;;;;;5134137;27;20109;-70
2021/12/29 04:26:39;;;;;;;69.45;39.42;;;5.00;99.90;;;;;;5134527;27;20019;-71
2021/12/29 04:29:07;;;;;;;68.13;38.05;;;5.00;99.90;;;;;;5134126;27;20504;-69
2021/12/29 04:31:33;;;;;;;65.35;35.55;;;5.00;99.90;;;;;;5133878;27;20027;-73
2021/12/29 04:33:58;;;;;;;64.25;33.90;;;5.00;99.90;;;;;;5133682;27;20068;-72
2021/12/29 04:36:24;;;;;;;56.25;32.53;;;5.00;99.90;;;;;;5133868;27;20031;-72
2021/12/29 04:38:51;;;;;;;67.72;33.72;;;5.00;99.90;;;;;;5134076;27;20047;-73
2021/12/29 04:41:17;;;;;;;62.65;33.47;;;5.00;99.90;;;;;;5134051;27;20050;-74
2021/12/29 04:43:43;;;;;;;53.53;30.35;;;4.90;99.90;;;;;;5133968;27;20077;-74
2021/12/29 04:46:14;;;;;;;49.97;28.40;;;4.90;99.90;;;;;;5133707;27;20120;-70
2021/12/29 04:48:46;;;;;;;59.65;30.15;;;4.80;99.90;;;;;;5133853;27;20118;-73
2021/12/29 04:51:15;;;;;;;48.42;27.75;;;4.80;99.90;;;;;;5133350;27;20023;-72
2021/12/29 04:53:41;;;;;;;48.13;28.13;;;4.80;99.90;;;;;;5133859;27;20043;-73
2021/12/29 04:56:07;;;;;;;50.85;29.65;;;4.70;99.90;;;;;;5133791;27;20035;-73
2021/12/29 04:58:33;;;;;;;47.40;26.83;;;4.80;99.90;;;;;;5133629;27;20023;-71
2021/12/29 05:00:59;;;;;;;46.72;27.17;;;4.70;99.90;;;;;;5133721;27;20034;-73
2021/12/29 05:03:25;;;;;;;47.53;27.83;;;4.70;99.90;;;;;;5133057;27;20019;-75
2021/12/29 05:08:24;;;;;;;37.40;23.75;;;4.70;99.90;;;;;;5133145;27;20485;-74
2021/12/29 05:08:43;;;;;;;35.60;21.73;;;4.70;99.90;;;;;;5133551;27;20039;-74
2021/12/29 05:11:13;;;;;;;38.05;21.95;;;4.70;99.90;;;;;;5133154;27;20080;-69
2021/12/29 05:13:42;;;;;;;36.42;22.42;;;4.70;99.90;;;;;;5133253;27;20066;-72
2021/12/29 05:16:08;;;;;;;33.75;20.73;;;4.60;99.90;;;;;;5132900;27;20106;-70
2021/12/29 05:18:36;;;;;;;35.33;20.52;;;4.60;99.90;;;;;;5133188;27;20126;-71
2021/12/29 05:21:04;;;;;;;35.05;21.42;;;4.60;99.90;;;;;;5132865;27;20019;-70
2021/12/29 05:23:30;;;;;;;32.88;20.42;;;4.60;99.90;;;;;;5133657;27;20023;-73
2021/12/29 05:25:56;;;;;;;32.45;19.02;;;4.70;99.90;;;;;;5133320;27;20038;-73
2021/12/29 05:28:24;;;;;;;32.92;19.27;;;4.60;99.90;;;;;;5133232;27;20071;-73
2021/12/29 05:30:51;;;;;;;31.90;18.92;;;4.70;99.90;;;;;;5133254;27;20031;-70
2021/12/29 05:33:18;;;;;;;36.22;20.40;;;4.70;99.90;;;;;;5133152;27;20023;-72
2021/12/29 05:35:44;;;;;;;30.73;18.40;;;4.70;99.90;;;;;;5133233;27;20027;-72
2021/12/29 05:38:10;;;;;;;31.02;19.30;;;4.70;99.90;;;;;;5132563;27;20055;-72
2021/12/29 05:40:37;;;;;;;31.05;19.17;;;4.80;99.90;;;;;;5132436;27;20031;-75
2021/12/29 05:43:04;;;;;;;28.70;19.35;;;4.80;99.90;;;;;;5133066;27;20390;-75
2021/12/29 05:45:30;;;;;;;29.48;17.80;;;4.80;99.90;;;;;;5136106;27;20046;-70
2021/12/29 05:47:56;;;;;;;30.80;18.00;;;4.70;99.90;;;;;;5137179;27;20038;-70
2021/12/29 05:50:25;;;;;;;27.42;17.27;;;4.70;99.90;;;;;;5137548;27;20023;-74
2021/12/29 05:52:52;;;;;;;31.20;18.20;;;4.70;99.90;;;;;;5136853;27;20032;-70
2021/12/29 05:55:18;;;;;;;32.10;18.25;;;4.70;99.90;;;;;;5137353;27;20023;-75
2021/12/29 05:57:44;;;;;;;33.92;19.05;;;4.70;99.90;;;;;;5137300;27;20162;-75
2021/12/29 06:00:14;;;;;;;30.17;17.55;;;4.70;99.90;;;;;;5136051;27;20019;-74
2021/12/29 06:02:40;;;;;;;32.40;18.85;;;4.70;99.90;;;;;;5135357;27;20087;-74
2021/12/29 06:05:09;;;;;;;30.65;18.88;;;4.70;99.90;;;;;;5136915;27;20504;-74
2021/12/29 06:07:36;;;;;;;29.83;18.95;;;4.60;99.90;;;;;;5136524;27;20055;-74
2021/12/29 06:10:04;;;;;;;31.20;19.98;;;4.70;99.90;;;;;;5136850;27;20039;-70
2021/12/29 06:12:30;;;;;;;34.25;20.08;;;4.70;99.90;;;;;;5136794;27;20027;-71
2021/12/29 06:14:56;;;;;;;43.13;22.58;;;4.70;99.90;;;;;;5137336;27;20030;-71
2021/12/29 06:17:22;;;;;;;37.30;22.75;;;4.70;99.90;;;;;;5136716;27;20019;-74
2021/12/29 06:19:48;;;;;;;33.65;20.67;;;4.70;99.90;;;;;;5136930;27;20493;-75
2021/12/29 06:22:14;;;;;;;31.63;22.20;;;4.60;99.90;;;;;;5136725;27;20067;-75
2021/12/29 06:24:41;;;;;;;34.92;22.83;;;4.60;99.90;;;;;;5136915;27;20020;-75
2021/12/29 06:27:08;;;;;;;34.17;22.80;;;4.60;99.90;;;;;;5136209;27;20508;-74
2021/12/29 06:29:35;;;;;;;36.58;23.55;;;4.60;99.90;;;;;;5136386;27;20035;-73
2021/12/29 06:32:01;;;;;;;34.30;21.77;;;4.60;99.90;;;;;;5136662;27;20015;-75
2021/12/29 06:34:28;;;;;;;32.65;21.90;;;4.60;99.90;;;;;;5136555;27;20030;-75
2021/12/29 06:36:54;;;;;;;31.95;21.35;;;4.60;99.90;;;;;;5136295;27;20023;-73
2021/12/29 06:39:19;;;;;;;38.25;24.30;;;4.60;99.90;;;;;;5136498;27;20044;-70
2021/12/29 06:41:45;;;;;;;36.08;24.50;;;4.60;99.90;;;;;;5136378;27;20381;-74
2021/12/29 06:44:11;;;;;;;39.63;24.77;;;4.60;99.90;;;;;;5136203;27;20043;-75
2021/12/29 06:46:37;;;;;;;37.05;24.38;;;4.60;99.90;;;;;;5135917;27;20110;-74
2021/12/29 06:49:04;;;;;;;39.90;25.73;;;4.60;99.90;;;;;;5136018;27;20023;-75
2021/12/29 06:51:29;;;;;;;42.42;25.42;;;4.60;99.90;;;;;;5136223;27;20090;-75
2021/12/29 06:53:55;;;;;;;35.00;23.17;;;4.70;99.90;;;;;;5135877;27;20118;-77
2021/12/29 06:56:21;;;;;;;31.38;21.92;;;4.70;99.90;;;;;;5134481;27;20035;-75
2021/12/29 06:58:47;;;;;;;31.77;20.30;;;4.70;99.90;;;;;;5135984;27;20046;-74
2021/12/29 07:01:13;;;;;;;32.22;22.25;;;4.70;99.90;;;;;;5135236;27;20023;-75
2021/12/29 07:03:39;;;;;;;33.50;22.08;;;4.70;99.90;;;;;;5135227;27;20062;-73
2021/12/29 07:06:05;;;;;;;31.35;22.30;;;4.80;99.90;;;;;;5135156;27;20047;-75
2021/12/29 07:08:31;;;;;;;30.13;20.38;;;4.70;99.90;;;;;;5135185;27;20035;-75
2021/12/29 07:10:57;;;;;;;31.75;21.58;;;4.70;99.90;;;;;;5135593;27;20026;-74
2021/12/29 07:13:23;;;;;;;34.00;21.63;;;4.70;99.90;;;;;;5136113;27;20023;-75
2021/12/29 07:15:49;;;;;;;33.17;22.38;;;4.80;99.90;;;;;;5135389;27;20418;-75
2021/12/29 07:18:15;;;;;;;33.60;23.20;;;4.70;99.90;;;;;;5135714;27;20116;-70
2021/12/29 07:20:42;;;;;;;36.42;25.55;;;4.80;99.90;;;;;;5134596;27;20084;-74
2021/12/29 07:23:08;;;;;;;41.53;26.17;;;4.80;99.90;;;;;;5135495;27;20076;-70
2021/12/29 07:25:34;;;;;;;34.72;23.58;;;4.80;99.90;;;;;;5135295;27;20031;-75
2021/12/29 07:28:00;;;;;;;36.97;24.77;;;4.90;99.90;;;;;;5135569;27;20416;-69
2021/12/29 07:30:26;;;;;;;39.72;26.73;;;4.90;99.90;;;;;;5135563;27;20023;-75
2021/12/29 07:32:52;;;;;;;40.60;28.83;;;4.90;99.90;;;;;;5134838;27;20037;-75
2021/12/29 07:35:18;;;;;;;47.25;29.67;;;5.00;99.90;;;;;;5135689;27;20050;-71
2021/12/29 07:37:44;;;;;;;44.80;30.95;;;5.00;99.90;;;;;;5133322;27;20100;-70
2021/12/29 07:40:10;;;;;;;44.50;31.63;;;5.00;99.90;;;;;;5135090;27;20023;-75
2021/12/29 07:42:38;;;;;;;40.35;28.45;;;5.10;99.90;;;;;;5135069;27;20735;-75
2021/12/29 07:45:08;;;;;;;38.50;26.90;;;5.10;99.90;;;;;;5135118;27;20076;-75
2021/12/29 07:47:35;;;;;;;42.90;30.55;;;5.10;99.90;;;;;;5134801;27;20034;-75
2021/12/29 07:50:01;;;;;;;57.35;35.55;;;5.10;99.90;;;;;;5134876;27;20030;-74
2021/12/29 07:52:27;;;;;;;48.15;34.75;;;5.00;99.90;;;;;;5134897;27;20042;-75
2021/12/29 07:54:52;;;;;;;40.75;29.80;;;5.20;99.90;;;;;;5134962;27;20370;-76
2021/12/29 07:57:18;;;;;;;45.72;29.38;;;5.20;99.90;;;;;;5134749;27;20059;-70
2021/12/29 07:59:44;;;;;;;46.47;29.17;;;5.30;99.90;;;;;;5134437;27;20050;-69
2021/12/29 08:02:16;;;;;;;40.45;27.00;;;5.30;99.90;;;;;;5134615;27;20437;-75
2021/12/29 08:04:43;;;;;;;38.60;26.88;;;5.30;99.90;;;;;;5134693;27;20063;-75
2021/12/29 08:07:09;;;;;;;45.08;29.50;;;5.30;99.90;;;;;;5133856;27;20019;-74
2021/12/29 08:09:35;;;;;;;45.92;29.92;;;5.40;99.90;;;;;;5133577;27;20166;-75
2021/12/29 08:12:01;;;;;;;47.15;32.40;;;5.40;99.90;;;;;;5132923;27;20023;-71
2021/12/29 08:14:27;;;;;;;48.30;31.00;;;5.50;99.90;;;;;;5133602;27;20030;-76
2021/12/29 08:16:53;;;;;;;37.60;28.52;;;5.50;99.90;;;;;;5133826;27;20027;-75
2021/12/29 08:19:19;;;;;;;52.42;35.65;;;5.60;99.90;;;;;;5132813;27;20073;-70
2021/12/29 08:21:45;;;;;;;56.50;34.88;;;5.60;99.90;;;;;;5134213;27;20065;-75
2021/12/29 08:24:11;;;;;;;51.40;31.67;;;5.60;99.90;;;;;;5134433;27;20106;-75
2021/12/29 08:26:37;;;;;;;39.88;28.13;;;5.60;99.90;;;;;;5132645;27;20012;-70
2021/12/29 08:29:03;;;;;;;45.65;31.38;;;5.60;99.90;;;;;;5134047;27;20389;-72
2021/12/29 08:31:29;;;;;;;45.47;30.58;;;5.60;99.90;;;;;;5133913;27;20011;-76
2021/12/29 08:33:55;;;;;;;44.60;31.88;;;5.70;99.90;;;;;;5133752;27;20374;-76
2021/12/29 08:36:21;;;;;;;46.08;33.05;;;5.70;99.90;;;;;;5133478;27;20029;-76
2021/12/29 08:38:47;;;;;;;51.33;33.83;;;5.90;99.90;;;;;;5133372;27;20047;-76
2021/12/29 08:41:13;;;;;;;48.85;35.58;;;5.90;99.90;;;;;;5133902;27;20081;-76
2021/12/29 08:43:39;;;;;;;53.17;38.25;;;6.00;99.90;;;;;;5133836;27;20049;-74
2021/12/29 08:46:06;;;;;;;54.55;39.13;;;6.10;99.90;;;;;;5133525;27;20068;-75
2021/12/29 08:48:31;;;;;;;53.50;36.83;;;6.20;99.90;;;;;;5133435;27;20168;-69
2021/12/29 08:50:59;;;;;;;56.50;39.72;;;6.20;99.90;;;;;;5132509;27;20094;-69
2021/12/29 08:53:26;;;;;;;55.05;39.55;;;6.30;99.90;;;;;;5133027;27;20027;-74
2021/12/29 08:55:55;;;;;;;61.47;39.83;;;6.40;99.90;;;;;;5131245;27;20027;-74
2021/12/29 08:58:24;;;;;;;59.22;39.20;;;6.60;99.90;;;;;;5130673;27;20118;-73
2021/12/29 09:00:52;;;;;;;63.70;39.05;;;6.70;99.90;;;;;;5132308;27;20019;-75
2021/12/29 09:03:19;;;;;;;61.97;40.65;;;6.80;99.90;;;;;;5123736;27;20023;-75
2021/12/29 09:05:45;;;;;;;53.75;33.75;;;6.90;99.90;;;;;;5131799;27;20007;-75
2021/12/29 09:08:11;;;;;;;60.67;38.58;;;7.00;99.90;;;;;;5131383;27;20460;-75
2021/12/29 09:10:37;;;;;;;64.55;40.90;;;7.10;99.90;;;;;;5131971;27;20015;-75
2021/12/29 09:13:04;;;;;;;108.38;59.88;;;7.20;99.90;;;;;;5132013;27;20528;-70
2021/12/29 09:15:31;;;;;;;61.70;38.13;;;7.20;99.90;;;;;;5131751;27;20022;-73
2021/12/29 09:17:59;;;;;;;69.85;45.22;;;7.30;99.90;;;;;;5129922;27;20096;-78
2021/12/29 09:20:29;;;;;;;87.32;59.03;;;7.40;99.90;;;;;;5113513;27;20084;-75
2021/12/29 09:23:06;;;;;;;78.07;55.60;;;7.50;99.90;;;;;;5132511;27;20557;-76
2021/12/29 09:25:34;;;;;;;67.32;48.00;;;7.50;99.90;;;;;;5131462;27;20035;-76
2021/12/29 09:28:01;;;;;;;52.83;36.90;;;7.70;99.90;;;;;;5127217;27;20020;-75
2021/12/29 09:30:30;;;;;;;50.50;33.58;;;7.70;99.90;;;;;;5124729;27;20023;-75
2021/12/29 09:32:56;;;;;;;47.90;32.75;;;7.80;99.90;;;;;;5123691;28;20106;-75
2021/12/29 09:35:23;;;;;;;57.38;43.55;;;7.90;99.90;;;;;;5132378;27;20035;-76
2021/12/29 09:37:50;;;;;;;60.88;43.38;;;7.90;99.90;;;;;;5142039;27;20053;-77
2021/12/29 09:40:21;;;;;;;69.28;49.85;;;8.00;99.90;;;;;;5153456;27;20043;-76
2021/12/29 09:42:53;;;;;;;74.90;52.60;;;8.00;99.90;;;;;;5135025;27;20027;-77
2021/12/29 09:45:19;;;;;;;76.80;51.78;;;8.10;99.90;;;;;;5153623;27;20057;-76
2021/12/29 09:47:45;;;;;;;82.50;59.67;;;8.20;99.90;;;;;;5153348;27;20042;-76
2021/12/29 09:50:14;;;;;;;82.50;56.10;;;8.20;99.90;;;;;;5153561;27;20035;-76
2021/12/29 09:52:41;;;;;;;67.95;50.35;;;8.20;99.90;;;;;;5153349;27;20050;-76
2021/12/29 09:55:10;;;;;;;71.63;48.95;;;8.30;99.90;;;;;;5152894;27;20035;-76
2021/12/29 09:57:41;;;;;;;61.55;45.90;;;8.40;99.90;;;;;;5135156;27;20047;-76
2021/12/29 10:00:10;;;;;;;65.93;47.38;;;8.40;99.90;;;;;;5153370;27;20030;-76
2021/12/29 10:02:36;;;;;;;69.95;49.38;;;8.30;99.90;;;;;;5153622;27;20468;-77
2021/12/29 10:05:04;;;;;;;51.33;37.15;;;8.30;99.90;;;;;;5153568;27;20481;-75
2021/12/29 10:07:30;;;;;;;46.63;33.42;;;8.30;99.90;;;;;;5153290;27;20027;-75
2021/12/29 10:09:56;;;;;;;46.55;30.50;;;8.20;99.90;;;;;;5135160;27;20353;-75
2021/12/29 10:12:22;;;;;;;39.97;27.13;;;8.30;99.90;;;;;;5153723;27;20052;-71
2021/12/29 10:14:49;;;;;;;53.72;36.60;;;8.30;99.90;;;;;;5153415;27;20019;-76
2021/12/29 10:17:15;;;;;;;57.05;40.95;;;8.30;99.90;;;;;;5153568;27;20023;-75
2021/12/29 10:19:41;;;;;;;58.50;44.13;;;8.30;99.90;;;;;;5153365;27;20484;-72
2021/12/29 10:22:18;;;;;;;66.55;45.05;;;8.20;99.90;;;;;;5153421;27;20015;-74
2021/12/29 10:24:44;;;;;;;61.05;41.70;;;8.40;99.90;;;;;;5152972;27;20030;-71
2021/12/29 10:27:16;;;;;;;52.90;35.72;;;8.50;99.90;;;;;;5153248;27;20432;-75
2021/12/29 10:29:42;;;;;;;59.22;42.45;;;8.70;99.90;;;;;;5153338;27;20027;-72
2021/12/29 10:32:08;;;;;;;55.65;37.25;;;8.80;99.90;;;;;;5155589;27;20056;-74
2021/12/29 10:34:34;;;;;;;53.67;38.47;;;8.90;99.90;;;;;;5156982;27;20037;-74
2021/12/29 10:37:07;;;;;;;46.60;36.72;;;8.90;99.90;;;;;;5157191;27;20400;-71
2021/12/29 10:39:45;;;;;;;49.53;36.20;;;9.00;99.90;;;;;;5156426;27;20046;-72
2021/12/29 10:42:16;;;;;;;49.78;34.08;;;9.20;99.90;;;;;;5156740;27;20053;-71
2021/12/29 10:44:52;;;;;;;50.42;34.47;;;9.10;99.90;;;;;;5137919;27;20030;-75
2021/12/29 10:47:24;;;;;;;47.17;35.45;;;9.20;99.90;;;;;;5156885;27;20023;-75
2021/12/29 10:49:55;;;;;;;46.13;34.72;;;9.20;99.90;;;;;;5156639;27;20026;-75
2021/12/29 10:52:36;;;;;;;50.50;35.35;;;9.40;99.90;;;;;;5156472;27;20068;-72
2021/12/29 10:55:06;;;;;;;65.75;48.97;;;9.50;99.90;;;;;;5156596;27;20027;-71
2021/12/29 10:57:32;;;;;;;57.72;43.30;;;9.60;99.90;;;;;;5156502;27;20514;-72
2021/12/29 10:59:59;;;;;;;42.90;30.25;;;9.60;99.90;;;;;;5156618;27;20485;-75
2021/12/29 11:02:30;;;;;;;43.35;29.50;;;9.70;99.90;;;;;;5156598;27;20026;-71
2021/12/29 11:04:59;;;;;;;40.05;27.58;;;9.70;99.90;;;;;;5156456;27;20023;-76
2021/12/29 11:07:29;;;;;;;41.90;30.25;;;9.70;99.90;;;;;;5156521;27;20034;-71
2021/12/29 11:10:07;;;;;;;40.92;29.85;;;9.70;99.90;;;;;;5156144;27;20030;-71
2021/12/29 11:12:43;;;;;;;36.40;25.48;;;9.70;99.90;;;;;;5156243;27;20014;-72
2021/12/29 11:15:23;;;;;;;37.50;26.85;;;9.80;99.90;;;;;;5156066;27;20041;-76
2021/12/29 11:17:54;;;;;;;40.70;28.90;;;9.80;99.90;;;;;;5156334;27;20072;-75
2021/12/29 11:20:24;;;;;;;38.95;27.45;;;9.80;99.90;;;;;;5156344;27;20429;-76
2021/12/29 11:22:51;;;;;;;56.50;44.28;;;9.90;99.90;;;;;;5155222;27;20027;-75
2021/12/29 11:25:28;;;;;;;58.08;43.83;;;9.90;99.90;;;;;;5137193;27;20023;-74
2021/12/29 11:27:54;;;;;;;62.55;43.53;;;9.80;99.90;;;;;;5155978;27;20105;-75
2021/12/29 11:30:20;;;;;;;75.75;53.17;;;9.70;99.90;;;;;;5155831;27;20118;-71
2021/12/29 11:32:47;;;;;;;62.72;46.80;;;9.60;99.90;;;;;;5154762;27;20060;-76
2021/12/29 11:35:19;;;;;;;53.42;38.28;;;9.60;99.90;;;;;;5155274;27;20526;-72
2021/12/29 11:37:48;;;;;;;52.10;36.75;;;9.60;99.90;;;;;;5153292;27;20043;-70
2021/12/29 11:40:18;;;;;;;50.35;36.92;;;9.50;99.90;;;;;;5155517;27;20116;-76
2021/12/29 11:42:44;;;;;;;53.13;37.78;;;9.50;99.90;;;;;;5155927;27;20560;-74
2021/12/29 11:45:12;;;;;;;47.03;31.65;;;9.60;99.90;;;;;;5155480;27;20115;-74
2021/12/29 11:47:38;;;;;;;37.67;27.00;;;9.50;99.90;;;;;;5156106;27;20023;-75
2021/12/29 11:50:06;;;;;;;40.90;29.17;;;9.50;99.90;;;;;;5155392;27;20022;-75
2021/12/29 11:53:01;;;;;;;23.90;15.90;;;9.60;99.90;;;;;;5136268;27;20042;-74
2021/12/29 11:55:45;;;;;;;28.27;19.85;;;9.50;99.90;;;;;;5155250;27;20035;-76
2021/12/29 11:58:18;;;;;;;34.13;23.45;;;9.50;99.90;;;;;;5154581;27;20437;-75
2021/12/29 12:01:18;;;;;;;33.33;23.17;;;9.40;99.90;;;;;;5136060;27;20430;-70
2021/12/29 12:03:44;;;;;;;27.92;17.55;;;9.40;99.90;;;;;;5154458;27;20534;-74
2021/12/29 12:06:27;;;;;;;28.75;17.98;;;9.30;99.90;;;;;;5154066;27;20019;-76
2021/12/29 12:09:13;;;;;;;27.75;19.90;;;9.20;99.90;;;;;;5152030;27;20495;-74
2021/12/29 12:11:54;;;;;;;29.73;21.00;;;9.20;99.90;;;;;;5153075;27;20472;-75
2021/12/29 12:14:31;;;;;;;31.40;21.70;;;9.20;99.90;;;;;;5153892;27;20474;-76
2021/12/29 12:17:14;;;;;;;38.42;24.80;;;9.10;99.90;;;;;;5153980;27;20034;-76
2021/12/29 12:19:40;;;;;;;30.13;20.45;;;9.20;99.90;;;;;;5153856;27;20451;-76
2021/12/29 12:22:19;;;;;;;28.40;19.23;;;9.20;99.90;;;;;;5154172;27;20106;-75
2021/12/29 12:25:05;;;;;;;28.90;19.52;;;9.10;99.90;;;;;;5154265;27;20026;-75
2021/12/29 12:27:36;;;;;;;31.10;20.80;;;9.10;99.90;;;;;;5154290;27;20106;-75
2021/12/29 12:30:07;;;;;;;27.77;19.55;;;9.20;99.90;;;;;;5153605;27;20481;-74
2021/12/29 12:33:10;;;;;;;32.13;22.67;;;9.10;99.90;;;;;;5154036;27;20535;-74
2021/12/29 12:35:39;;;;;;;28.98;19.30;;;9.20;99.90;;;;;;5049724;28;20029;-74
2021/12/29 12:38:21;;;;;;;29.67;21.25;;;9.30;99.90;;;;;;5049224;28;20049;-74
2021/12/29 12:41:07;;;;;;;29.13;19.63;;;9.30;99.90;;;;;;5049373;28;20041;-75
2021/12/29 12:44:05;;;;;;;32.58;20.95;;;9.40;99.90;;;;;;5049198;28;20039;-75
2021/12/29 12:46:42;;;;;;;24.48;17.67;;;9.50;99.90;;;;;;5049565;28;20560;-76